Hidden Valley, Texas
Current Conditions -  °F | °C
As of 8:35 AM on Friday 19 Dec 2014 (Local Time) from KOCH Reporting Station
Overcast Overcast  
Wind Chill: 44°   Ceiling: 600
Heat Index: 48°   Visibility: 7mi
Dew Point: 46°   Wind: 9mph
Humidity: 93%   Direction: 360°N
Pressure: 30.17"   Gusts: NA
Location:  31.7931°N, 94.5281°W
Report Text: KOCH 191435Z AUTO 36008KT 7SM OVC006 09/08 A3017 RMK AO1 P0003
Loading
Personal Weather Stations






























Interactive Weather Map New forecast layout! Learn more

10-Day Weather Forecast

Advertisements
Track Severe Weather on mobile